Time;durP1;ratioP1;P1;durP2;ratioP2;P2;SDS_P1;SDS_P2;PMS_P1;PMS_P2;Temp;Humidity;BMP_temperature;BMP_pressure;BME280_temperature;BME280_humidity;BME280_pressure;Samples;Min_cycle;Max_cycle;Signal;HPM_P1;HPM_P2
2024/01/11 05:32:27;;;;;;;20.60;16.23;;;17.60;21.20;;;;;;5041055;27;48186;-41
2024/01/11 05:35:13;;;;;;;19.50;15.33;;;18.60;20.80;;;;;;5035793;27;45909;-42
2024/01/11 05:37:59;;;;;;;18.98;15.30;;;18.80;20.50;;;;;;5029373;27;46033;-42
2024/01/11 05:40:45;;;;;;;20.80;16.33;;;18.90;20.30;;;;;;5017966;27;45470;-44
2024/01/11 05:43:31;;;;;;;19.90;15.88;;;19.10;20.20;;;;;;5033146;27;45641;-41
2024/01/11 05:46:17;;;;;;;18.95;14.98;;;19.20;20.00;;;;;;5009313;27;45574;-40
2024/01/11 05:49:03;;;;;;;20.77;15.17;;;19.30;19.90;;;;;;4992117;27;45312;-42
2024/01/11 05:51:49;;;;;;;18.63;15.20;;;19.40;19.80;;;;;;4993745;28;45380;-42
2024/01/11 05:54:35;;;;;;;19.83;15.52;;;19.50;19.70;;;;;;5002864;28;45741;-42
2024/01/11 05:57:21;;;;;;;18.55;15.05;;;19.60;19.70;;;;;;5017206;28;45106;-43
2024/01/11 06:00:07;;;;;;;19.33;15.65;;;19.70;19.60;;;;;;5010255;28;45578;-44
2024/01/11 06:02:53;;;;;;;19.38;15.65;;;19.70;19.50;;;;;;5002994;28;45893;-43
2024/01/11 06:05:39;;;;;;;20.77;15.48;;;19.80;19.40;;;;;;4984638;28;45718;-43
2024/01/11 06:08:10;;;;;;;19.95;15.23;;;19.80;19.40;;;;;;5012813;28;48199;-41
2024/01/11 06:10:36;;;;;;;18.23;14.90;;;19.90;19.30;;;;;;5023935;28;45549;-41
2024/01/11 06:13:01;;;;;;;19.23;15.37;;;19.90;19.30;;;;;;5026251;28;45986;-41
2024/01/11 06:15:27;;;;;;;19.07;15.27;;;19.90;19.20;;;;;;5021418;27;45658;-44
2024/01/11 06:17:53;;;;;;;18.13;14.50;;;19.90;19.20;;;;;;5023125;28;45362;-42
2024/01/11 06:20:18;;;;;;;18.10;15.40;;;19.90;19.10;;;;;;5024637;28;45410;-44
2024/01/11 06:22:44;;;;;;;18.05;15.05;;;20.00;19.10;;;;;;5026160;28;45564;-41
2024/01/11 06:25:10;;;;;;;19.43;14.83;;;20.00;19.10;;;;;;5018648;28;46444;-42
2024/01/11 06:27:35;;;;;;;18.37;15.13;;;20.00;19.10;;;;;;5024208;28;45572;-40
2024/01/11 06:30:01;;;;;;;18.10;14.77;;;20.00;19.10;;;;;;5036295;28;45392;-41
2024/01/11 06:32:27;;;;;;;20.50;15.65;;;20.00;19.10;;;;;;4998466;28;45139;-42
2024/01/11 06:34:52;;;;;;;20.65;16.08;;;20.00;19.10;;;;;;5010670;28;46828;-41
2024/01/11 06:37:18;;;;;;;21.33;15.70;;;20.00;19.10;;;;;;5010504;28;45408;-41
2024/01/11 06:39:43;;;;;;;18.60;15.70;;;20.00;19.00;;;;;;5027841;28;45431;-43
2024/01/11 06:42:09;;;;;;;22.97;16.33;;;20.00;19.00;;;;;;5005949;28;45483;-40
2024/01/11 06:44:34;;;;;;;19.73;15.57;;;20.00;19.00;;;;;;4989406;28;45971;-41
2024/01/11 06:47:01;;;;;;;20.20;15.80;;;20.00;19.00;;;;;;4977755;28;46635;-42
2024/01/11 06:49:27;;;;;;;22.88;16.08;;;20.00;18.90;;;;;;5018133;28;45391;-41
2024/01/11 06:51:52;;;;;;;20.03;15.70;;;20.00;18.90;;;;;;5005261;28;45145;-41
2024/01/11 06:54:18;;;;;;;20.80;16.00;;;20.00;18.90;;;;;;5001616;28;45513;-41
2024/01/11 06:56:43;;;;;;;19.93;15.07;;;20.00;18.90;;;;;;5006456;28;45514;-41
2024/01/11 06:59:09;;;;;;;21.27;15.73;;;20.00;18.90;;;;;;5019893;28;45336;-41
2024/01/11 07:01:34;;;;;;;20.93;15.97;;;20.00;18.80;;;;;;4994416;28;45890;-41
2024/01/11 07:04:00;;;;;;;20.37;16.57;;;20.00;18.80;;;;;;5009153;28;45973;-41
2024/01/11 07:06:25;;;;;;;19.00;16.02;;;20.10;18.90;;;;;;4974352;28;45510;-41
2024/01/11 07:08:51;;;;;;;20.40;15.82;;;20.00;18.80;;;;;;5009463;28;45525;-41
2024/01/11 07:11:17;;;;;;;18.88;15.32;;;20.00;18.90;;;;;;5010414;28;45529;-41
2024/01/11 07:13:43;;;;;;;19.88;14.95;;;20.00;18.90;;;;;;5026824;28;45107;-41
2024/01/11 07:16:08;;;;;;;18.98;15.02;;;20.00;18.80;;;;;;4995071;28;46511;-41
2024/01/11 07:18:34;;;;;;;21.73;16.00;;;20.00;18.80;;;;;;5014897;28;45496;-43
2024/01/11 07:21:00;;;;;;;18.80;15.20;;;20.00;18.80;;;;;;5006978;28;45536;-43
2024/01/11 07:23:26;;;;;;;20.10;15.23;;;20.00;19.30;;;;;;5023837;28;45394;-42
2024/01/11 07:25:51;;;;;;;18.65;15.63;;;20.00;18.80;;;;;;4998010;28;45388;-43
2024/01/11 07:28:17;;;;;;;19.13;15.10;;;20.00;18.90;;;;;;4988892;28;45239;-41
2024/01/11 07:30:43;;;;;;;20.00;15.50;;;20.00;18.80;;;;;;5002227;28;45271;-41
2024/01/11 07:33:09;;;;;;;19.02;15.35;;;20.00;18.80;;;;;;5012984;28;46724;-41
2024/01/11 07:35:35;;;;;;;21.75;14.85;;;20.00;18.80;;;;;;5001597;28;45372;-42
2024/01/11 07:38:00;;;;;;;19.10;15.37;;;20.00;18.90;;;;;;5013029;28;45434;-41
2024/01/11 07:40:26;;;;;;;18.30;15.05;;;20.00;18.90;;;;;;5002200;28;46275;-42
2024/01/11 07:42:51;;;;;;;18.77;15.32;;;20.00;18.80;;;;;;5011758;28;45459;-41
2024/01/11 07:45:17;;;;;;;19.00;15.10;;;20.00;18.80;;;;;;5001479;28;45873;-41
2024/01/11 07:47:43;;;;;;;19.37;15.23;;;20.00;18.90;;;;;;5013140;28;45327;-43
2024/01/11 07:50:12;;;;;;;18.40;14.47;;;19.90;18.80;;;;;;5001659;28;45835;-42
2024/01/11 07:52:37;;;;;;;18.75;15.13;;;19.90;18.90;;;;;;5010061;28;46703;-43
2024/01/11 07:55:07;;;;;;;18.67;14.43;;;19.90;18.80;;;;;;5001542;28;45293;-45
2024/01/11 07:57:34;;;;;;;18.13;14.57;;;20.00;18.90;;;;;;5016317;28;45371;-44
2024/01/11 07:59:59;;;;;;;18.65;14.77;;;19.90;18.80;;;;;;5009572;28;45118;-43
2024/01/11 08:02:25;;;;;;;18.63;15.20;;;19.90;18.90;;;;;;4992121;28;46772;-41
2024/01/11 08:04:50;;;;;;;20.57;15.47;;;19.90;18.90;;;;;;5018781;28;45406;-42
2024/01/11 08:07:16;;;;;;;17.67;15.00;;;19.90;18.90;;;;;;5007594;28;45501;-42
2024/01/11 08:09:45;;;;;;;19.43;15.50;;;19.90;18.90;;;;;;5013408;28;45902;-42
2024/01/11 08:12:11;;;;;;;19.63;15.23;;;19.90;18.90;;;;;;4995648;28;47539;-43
2024/01/11 08:14:37;;;;;;;20.67;16.37;;;19.90;19.00;;;;;;5009024;28;45507;-41
2024/01/11 08:17:04;;;;;;;18.58;15.27;;;19.90;18.90;;;;;;4997908;28;45779;-42
2024/01/11 08:19:30;;;;;;;20.50;16.02;;;19.80;18.90;;;;;;5008013;28;45211;-42
2024/01/11 08:21:56;;;;;;;20.35;15.13;;;19.80;18.90;;;;;;5001805;28;45154;-42
2024/01/11 08:24:22;;;;;;;19.37;15.63;;;19.80;18.90;;;;;;5002635;28;46968;-41
2024/01/11 08:26:47;;;;;;;20.88;16.00;;;19.80;18.90;;;;;;4996188;28;45502;-42
2024/01/11 08:29:13;;;;;;;20.70;16.50;;;19.80;18.90;;;;;;5010048;28;45521;-41
2024/01/11 08:31:39;;;;;;;19.67;16.23;;;19.80;19.00;;;;;;4995311;28;45912;-42
2024/01/11 08:34:04;;;;;;;19.43;15.73;;;19.70;19.00;;;;;;5011400;28;44934;-42
2024/01/11 08:36:34;;;;;;;22.00;15.20;;;19.80;19.00;;;;;;4996712;28;45693;-43
2024/01/11 08:39:04;;;;;;;19.83;16.27;;;19.70;18.90;;;;;;5015273;28;46150;-43
2024/01/11 08:41:29;;;;;;;19.75;15.88;;;19.70;19.00;;;;;;5004911;28;45762;-42
2024/01/11 08:43:55;;;;;;;18.02;15.10;;;19.70;18.90;;;;;;5010394;28;45559;-41
2024/01/11 08:46:25;;;;;;;18.45;15.63;;;19.70;18.90;;;;;;4997909;28;45286;-41
2024/01/11 08:48:51;;;;;;;18.98;15.13;;;19.70;19.00;;;;;;5009310;28;45516;-40
2024/01/11 08:51:16;;;;;;;19.33;15.85;;;19.70;19.00;;;;;;5010071;28;45311;-42
2024/01/11 08:53:42;;;;;;;19.13;15.53;;;19.70;19.00;;;;;;5015644;28;45576;-43
2024/01/11 08:56:07;;;;;;;21.10;15.97;;;19.70;19.00;;;;;;4992912;28;45760;-42
2024/01/11 08:58:33;;;;;;;20.30;15.87;;;19.70;19.00;;;;;;5015283;28;45575;-43
2024/01/11 09:00:59;;;;;;;19.40;15.67;;;19.70;19.00;;;;;;4983612;28;46488;-44
2024/01/11 09:03:24;;;;;;;19.30;15.43;;;19.70;19.00;;;;;;5007276;28;45412;-41
2024/01/11 09:05:50;;;;;;;21.60;16.37;;;19.70;19.00;;;;;;4993722;28;45154;-42
2024/01/11 09:08:15;;;;;;;21.83;16.33;;;19.70;19.00;;;;;;5012689;28;46987;-42
2024/01/11 09:10:41;;;;;;;19.80;15.90;;;19.70;19.00;;;;;;5012247;28;45380;-41
2024/01/11 09:13:07;;;;;;;20.48;16.48;;;19.70;19.00;;;;;;5014042;28;44942;-44
2024/01/11 09:15:33;;;;;;;20.05;15.75;;;19.80;19.10;;;;;;5002027;28;45101;-45
2024/01/11 09:18:00;;;;;;;20.27;16.27;;;19.70;19.10;;;;;;5013254;28;44957;-43
2024/01/11 09:20:25;;;;;;;18.83;15.38;;;19.80;19.10;;;;;;5004015;28;45432;-43
2024/01/11 09:22:51;;;;;;;19.58;15.68;;;19.80;19.10;;;;;;5009908;28;45589;-41
2024/01/11 09:25:16;;;;;;;20.80;15.57;;;19.80;19.10;;;;;;5001559;28;44920;-42
2024/01/11 09:27:42;;;;;;;20.35;16.13;;;19.80;19.20;;;;;;5004000;28;46281;-41
2024/01/11 09:30:08;;;;;;;19.25;15.60;;;19.80;19.10;;;;;;5005336;28;45886;-46
2024/01/11 09:32:35;;;;;;;18.85;15.10;;;19.80;19.20;;;;;;5008280;28;45275;-46
2024/01/11 09:35:02;;;;;;;18.23;14.77;;;19.80;19.20;;;;;;5007394;28;46033;-46
2024/01/11 09:37:28;;;;;;;19.77;15.55;;;19.90;19.70;;;;;;4972524;28;45246;-41
2024/01/11 09:39:53;;;;;;;19.00;15.03;;;19.90;19.20;;;;;;5012610;28;45717;-43
2024/01/11 09:42:19;;;;;;;18.43;14.80;;;19.90;19.20;;;;;;5001817;28;47748;-43
2024/01/11 09:44:44;;;;;;;17.70;14.33;;;19.90;19.20;;;;;;5016960;28;45538;-41
2024/01/11 09:47:11;;;;;;;18.63;14.73;;;19.90;19.20;;;;;;4996410;28;45649;-43
2024/01/11 09:49:37;;;;;;;19.35;14.30;;;19.90;19.30;;;;;;5011053;28;47580;-42
2024/01/11 09:52:04;;;;;;;18.42;14.70;;;19.90;19.20;;;;;;5007923;28;45189;-43
2024/01/11 09:54:29;;;;;;;19.13;14.85;;;20.00;19.30;;;;;;5003915;28;45716;-41
2024/01/11 09:56:55;;;;;;;17.90;14.63;;;19.90;19.70;;;;;;5006024;28;45236;-41
2024/01/11 09:59:23;;;;;;;18.47;14.60;;;20.00;19.30;;;;;;5010796;28;45548;-43
2024/01/11 10:01:49;;;;;;;17.27;14.57;;;20.00;19.30;;;;;;4990079;28;45410;-43
2024/01/11 10:04:15;;;;;;;18.67;15.05;;;20.00;19.30;;;;;;5006200;28;45382;-42
2024/01/11 10:06:40;;;;;;;17.63;13.80;;;20.10;19.30;;;;;;5004059;28;45428;-42
2024/01/11 10:09:07;;;;;;;18.80;14.50;;;20.10;19.30;;;;;;5013392;28;45542;-41
2024/01/11 10:11:34;;;;;;;18.48;14.40;;;20.10;19.40;;;;;;5006443;28;45670;-39
2024/01/11 10:14:01;;;;;;;19.25;14.68;;;20.10;19.30;;;;;;5016983;28;45272;-39
2024/01/11 10:16:27;;;;;;;19.20;14.75;;;20.10;19.30;;;;;;5001655;28;46169;-39
2024/01/11 10:18:56;;;;;;;16.70;13.52;;;20.20;19.40;;;;;;5017028;28;45346;-39
2024/01/11 10:21:21;;;;;;;17.00;13.90;;;20.20;19.40;;;;;;5001938;28;46101;-39
2024/01/11 10:23:48;;;;;;;18.43;13.90;;;20.20;19.30;;;;;;5013226;28;45908;-42
2024/01/11 10:26:17;;;;;;;18.02;14.13;;;20.20;19.30;;;;;;5005687;28;46191;-42
2024/01/11 10:28:44;;;;;;;17.95;13.95;;;20.30;19.40;;;;;;5019985;28;45670;-41
2024/01/11 10:31:10;;;;;;;18.17;13.73;;;20.30;19.40;;;;;;4998545;28;45125;-42
2024/01/11 10:33:36;;;;;;;17.23;13.73;;;20.30;19.40;;;;;;4999496;28;45518;-43
2024/01/11 10:36:01;;;;;;;16.17;13.60;;;20.30;19.40;;;;;;5009527;28;45448;-45
2024/01/11 10:38:27;;;;;;;18.03;13.53;;;20.30;19.30;;;;;;5013149;28;45709;-43
2024/01/11 10:40:53;;;;;;;16.60;13.40;;;20.40;19.40;;;;;;4996229;28;45576;-43
2024/01/11 10:43:20;;;;;;;15.52;13.45;;;20.40;19.40;;;;;;5003954;28;45460;-41
2024/01/11 10:45:47;;;;;;;14.43;12.23;;;20.50;19.40;;;;;;4995430;28;45479;-41
2024/01/11 10:48:14;;;;;;;16.47;13.27;;;20.50;19.40;;;;;;5003386;28;46205;-48
2024/01/11 10:50:44;;;;;;;16.07;12.90;;;20.50;19.40;;;;;;5013986;28;45009;-42
2024/01/11 10:53:24;;;;;;;15.90;13.10;;;20.50;19.40;;;;;;5015053;28;45234;-43
2024/01/11 10:55:50;;;;;;;15.85;12.63;;;20.60;19.40;;;;;;5008159;28;45250;-43
2024/01/11 10:58:15;;;;;;;15.93;13.23;;;20.60;19.30;;;;;;5009094;28;45447;-44
2024/01/11 11:00:41;;;;;;;15.97;12.43;;;20.60;19.30;;;;;;4997005;28;45587;-42
2024/01/11 11:03:07;;;;;;;15.53;12.47;;;20.70;19.40;;;;;;5020623;28;45532;-45
2024/01/11 11:05:35;;;;;;;15.25;12.18;;;20.70;19.40;;;;;;5006048;28;46323;-41
2024/01/11 11:08:01;;;;;;;16.85;11.88;;;20.70;19.40;;;;;;5003731;28;47240;-42
2024/01/11 11:10:27;;;;;;;15.88;12.57;;;20.80;19.40;;;;;;5001862;28;45367;-44
2024/01/11 11:12:53;;;;;;;15.30;12.52;;;20.80;19.40;;;;;;4999938;28;45526;-44
2024/01/11 11:15:19;;;;;;;15.70;12.52;;;20.80;19.40;;;;;;5005994;28;45326;-41
2024/01/11 11:17:45;;;;;;;15.40;12.52;;;20.80;19.40;;;;;;5005236;28;46273;-41
2024/01/11 11:20:16;;;;;;;16.15;12.70;;;20.80;19.40;;;;;;5009296;28;45674;-42
2024/01/11 11:22:42;;;;;;;15.95;12.07;;;20.90;19.40;;;;;;5004716;28;45689;-42
2024/01/11 11:25:09;;;;;;;13.77;11.50;;;20.90;19.40;;;;;;5011986;28;45230;-41
2024/01/11 11:27:35;;;;;;;16.23;12.63;;;20.90;19.40;;;;;;5013909;28;46563;-43
2024/01/11 11:30:00;;;;;;;15.85;11.82;;;20.90;19.40;;;;;;5010987;28;45353;-45
2024/01/11 11:32:39;;;;;;;14.65;11.88;;;21.00;19.30;;;;;;4996675;28;45643;-42
2024/01/11 11:35:05;;;;;;;13.60;11.30;;;21.00;19.30;;;;;;5017681;28;44822;-45
2024/01/11 11:37:34;;;;;;;13.90;11.27;;;21.00;19.30;;;;;;5006180;28;46740;-42
2024/01/11 11:39:59;;;;;;;13.45;11.30;;;21.10;19.30;;;;;;5013098;28;45651;-42
2024/01/11 11:42:25;;;;;;;14.37;11.60;;;21.10;19.30;;;;;;4991090;28;45543;-43
2024/01/11 11:44:51;;;;;;;13.85;11.50;;;21.20;19.30;;;;;;4999383;28;45580;-42
2024/01/11 11:47:20;;;;;;;14.05;11.27;;;21.20;19.30;;;;;;4963822;28;45351;-44
2024/01/11 11:49:59;;;;;;;13.13;11.02;;;21.20;19.20;;;;;;5013089;28;44704;-43
2024/01/11 11:52:25;;;;;;;13.68;11.18;;;21.20;19.20;;;;;;4991865;28;45419;-41
2024/01/11 11:54:50;;;;;;;12.35;10.55;;;21.30;19.30;;;;;;5002834;28;45228;-42
2024/01/11 11:57:16;;;;;;;14.20;11.57;;;21.30;19.20;;;;;;5003868;28;45661;-45
2024/01/11 11:59:42;;;;;;;13.60;11.07;;;21.30;19.20;;;;;;5013344;28;45551;-42
2024/01/11 12:02:08;;;;;;;14.60;10.82;;;21.30;19.20;;;;;;4997627;28;45174;-41
2024/01/11 12:04:34;;;;;;;13.03;11.30;;;21.40;19.20;;;;;;4997201;28;45326;-44
2024/01/11 12:07:00;;;;;;;14.70;11.53;;;21.40;19.20;;;;;;4999845;28;46445;-42
2024/01/11 12:09:25;;;;;;;13.57;11.27;;;21.40;19.20;;;;;;5012990;28;45475;-42
2024/01/11 12:11:51;;;;;;;13.63;11.20;;;21.40;19.20;;;;;;5005288;28;45644;-43
2024/01/11 12:14:16;;;;;;;12.73;10.63;;;21.40;19.20;;;;;;5006769;28;45306;-42
2024/01/11 12:16:42;;;;;;;13.10;10.90;;;21.40;19.20;;;;;;4990204;28;46459;-44
2024/01/11 12:19:07;;;;;;;12.67;10.50;;;21.50;19.20;;;;;;5012400;28;45206;-42
2024/01/11 12:21:33;;;;;;;12.40;10.67;;;21.50;19.20;;;;;;4974061;28;44984;-42
2024/01/11 12:23:58;;;;;;;12.77;10.77;;;21.50;19.10;;;;;;5007912;28;45984;-41
2024/01/11 12:26:24;;;;;;;12.77;10.80;;;21.50;19.10;;;;;;5002351;28;47226;-46
2024/01/11 12:28:50;;;;;;;13.10;10.97;;;21.50;19.10;;;;;;5007310;28;45763;-42
2024/01/11 12:31:16;;;;;;;13.00;10.48;;;21.50;19.10;;;;;;4995966;28;45578;-41
2024/01/11 12:33:43;;;;;;;13.73;11.07;;;21.60;19.20;;;;;;5005274;28;44889;-42
2024/01/11 12:36:08;;;;;;;12.57;10.70;;;21.60;19.20;;;;;;5002185;28;46318;-42
2024/01/11 12:38:34;;;;;;;15.02;11.25;;;21.60;19.20;;;;;;5014836;28;45416;-41
2024/01/11 12:41:00;;;;;;;12.13;10.40;;;21.60;19.10;;;;;;5002646;28;45300;-41
2024/01/11 12:43:25;;;;;;;12.47;10.57;;;21.60;19.10;;;;;;5018422;28;45688;-45
2024/01/11 12:45:51;;;;;;;12.30;10.73;;;21.60;19.10;;;;;;4997903;28;45776;-41
2024/01/11 12:48:18;;;;;;;12.00;10.53;;;21.60;19.10;;;;;;5010952;28;45220;-46
2024/01/11 12:50:44;;;;;;;12.77;10.32;;;21.60;19.10;;;;;;5007320;28;45787;-43
2024/01/11 12:53:18;;;;;;;13.07;10.85;;;21.70;19.10;;;;;;5012360;28;45314;-41
2024/01/11 12:55:47;;;;;;;12.13;10.13;;;21.60;18.70;;;;;;4998666;28;45733;-41
2024/01/11 12:58:14;;;;;;;13.13;10.80;;;21.70;19.10;;;;;;5019609;28;47771;-42
2024/01/11 13:00:40;;;;;;;13.40;10.50;;;21.70;19.20;;;;;;5000045;28;45071;-45
2024/01/11 13:03:05;;;;;;;11.87;10.33;;;21.70;19.20;;;;;;5013187;28;45110;-41
2024/01/11 13:05:35;;;;;;;13.03;10.47;;;21.70;19.10;;;;;;4996156;28;47134;-45
2024/01/11 13:08:03;;;;;;;13.10;10.52;;;21.70;19.10;;;;;;5011988;28;45447;-41
2024/01/11 13:10:29;;;;;;;12.32;10.23;;;21.70;19.10;;;;;;5004849;28;45464;-42
2024/01/11 13:12:55;;;;;;;13.98;10.57;;;21.70;19.10;;;;;;5017172;28;45314;-42
2024/01/11 13:15:20;;;;;;;12.63;10.48;;;21.70;19.10;;;;;;5006344;28;46710;-41
2024/01/11 13:17:46;;;;;;;12.73;10.50;;;21.70;19.20;;;;;;5006206;28;45860;-42
2024/01/11 13:20:11;;;;;;;11.68;10.05;;;21.70;19.10;;;;;;5009470;28;44974;-44
2024/01/11 13:22:37;;;;;;;11.00;9.75;;;21.70;19.10;;;;;;5008746;28;45392;-42
2024/01/11 13:25:04;;;;;;;12.05;10.25;;;21.70;19.10;;;;;;5011011;28;46021;-46
2024/01/11 13:27:31;;;;;;;11.73;9.90;;;21.70;19.20;;;;;;4986787;28;45074;-41
2024/01/11 13:29:58;;;;;;;11.38;9.77;;;21.70;19.10;;;;;;5010752;28;44956;-42
2024/01/11 13:32:23;;;;;;;11.30;9.57;;;21.70;19.10;;;;;;4994685;28;45374;-45
2024/01/11 13:34:52;;;;;;;11.80;10.10;;;21.70;19.20;;;;;;5004494;28;48195;-44
2024/01/11 13:37:19;;;;;;;11.67;9.60;;;21.70;19.10;;;;;;4989773;28;45522;-41
2024/01/11 13:39:45;;;;;;;10.40;9.23;;;21.70;19.10;;;;;;5009118;28;45573;-41
2024/01/11 13:42:10;;;;;;;11.95;10.07;;;21.70;19.20;;;;;;5000897;28;45438;-39
2024/01/11 13:44:36;;;;;;;11.68;9.65;;;21.70;19.10;;;;;;5018869;28;45591;-41
2024/01/11 13:47:02;;;;;;;11.70;9.90;;;21.70;19.20;;;;;;5004944;28;46009;-39
2024/01/11 13:49:28;;;;;;;9.90;8.90;;;21.70;19.20;;;;;;5013318;28;45516;-44
2024/01/11 13:51:53;;;;;;;11.60;9.43;;;21.70;19.20;;;;;;5010231;28;45239;-42
2024/01/11 13:54:20;;;;;;;10.68;9.15;;;21.70;19.20;;;;;;5014748;28;46289;-41
2024/01/11 13:56:46;;;;;;;11.05;9.63;;;21.70;19.20;;;;;;5003681;28;45508;-42
2024/01/11 13:59:11;;;;;;;10.88;9.15;;;21.70;19.20;;;;;;5023627;28;45096;-41
2024/01/11 14:01:37;;;;;;;11.10;9.43;;;21.70;19.20;;;;;;4985967;28;45562;-42
2024/01/11 14:04:03;;;;;;;11.95;10.10;;;21.70;19.20;;;;;;5016745;28;45453;-43
2024/01/11 14:06:28;;;;;;;11.93;9.38;;;21.70;19.20;;;;;;5004399;28;45908;-43
2024/01/11 14:08:54;;;;;;;11.20;9.50;;;21.70;19.30;;;;;;5019104;28;46388;-44
2024/01/11 14:11:19;;;;;;;11.10;9.07;;;21.70;19.30;;;;;;5008318;28;45801;-42
2024/01/11 14:13:45;;;;;;;11.83;9.57;;;21.70;19.20;;;;;;4983089;28;45578;-46
2024/01/11 14:16:13;;;;;;;10.77;9.23;;;21.70;19.30;;;;;;4979011;28;45774;-45
2024/01/11 14:18:39;;;;;;;11.25;9.07;;;21.70;19.30;;;;;;4985982;28;46200;-43
2024/01/11 14:21:05;;;;;;;11.32;9.05;;;21.70;19.30;;;;;;4996354;28;45411;-44
2024/01/11 14:23:31;;;;;;;10.73;9.27;;;21.70;19.30;;;;;;5001111;28;46929;-43
2024/01/11 14:25:57;;;;;;;11.27;9.48;;;21.70;19.30;;;;;;4993789;28;45398;-42
2024/01/11 14:28:22;;;;;;;10.87;8.90;;;21.70;19.30;;;;;;4992289;28;47096;-39
2024/01/11 14:30:48;;;;;;;10.73;9.10;;;21.70;19.30;;;;;;4952278;28;45942;-41
2024/01/11 14:33:14;;;;;;;10.63;9.00;;;21.70;19.30;;;;;;4998369;28;45543;-39
2024/01/11 14:35:39;;;;;;;10.97;9.10;;;21.70;19.30;;;;;;4987914;28;45214;-40
2024/01/11 14:38:05;;;;;;;10.77;9.05;;;21.70;19.30;;;;;;5003445;28;45336;-42
2024/01/11 14:40:32;;;;;;;9.98;8.55;;;21.70;19.30;;;;;;4984037;28;46610;-45
2024/01/11 14:42:57;;;;;;;11.93;8.93;;;21.70;19.30;;;;;;5001235;28;47287;-38
2024/01/11 14:45:23;;;;;;;10.20;8.40;;;21.70;19.30;;;;;;4988361;28;47097;-39
2024/01/11 14:47:48;;;;;;;9.77;8.25;;;21.70;19.40;;;;;;4991045;28;45583;-39
2024/01/11 14:50:14;;;;;;;10.00;8.77;;;21.70;19.30;;;;;;4994558;28;45148;-39
2024/01/11 14:52:39;;;;;;;10.70;8.63;;;21.70;19.40;;;;;;4996211;28;45757;-40
2024/01/11 14:55:07;;;;;;;9.82;8.35;;;21.70;19.40;;;;;;4997226;28;45345;-39
2024/01/11 14:57:33;;;;;;;10.88;8.48;;;21.70;19.40;;;;;;4994850;28;45252;-38
2024/01/11 14:59:58;;;;;;;10.38;8.60;;;21.70;19.40;;;;;;4998063;28;46312;-40
2024/01/11 15:02:24;;;;;;;9.20;7.93;;;21.70;19.40;;;;;;4982861;28;46290;-40
2024/01/11 15:04:49;;;;;;;11.30;8.60;;;21.70;19.40;;;;;;4998813;28;45003;-39
2024/01/11 15:07:15;;;;;;;10.23;8.43;;;21.70;19.40;;;;;;4991857;28;45254;-40
2024/01/11 15:09:41;;;;;;;10.43;8.70;;;21.70;19.40;;;;;;4996112;28;46382;-39
2024/01/11 15:12:06;;;;;;;10.00;8.40;;;21.70;19.40;;;;;;4995505;28;45546;-39
2024/01/11 15:14:32;;;;;;;9.95;8.68;;;21.70;19.40;;;;;;4998929;28;45436;-42
2024/01/11 15:16:58;;;;;;;9.97;8.23;;;21.70;19.40;;;;;;4983993;28;45409;-38
2024/01/11 15:19:24;;;;;;;10.60;8.63;;;21.70;19.40;;;;;;4995901;28;46227;-39
2024/01/11 15:21:50;;;;;;;9.75;8.13;;;21.70;19.40;;;;;;4981130;28;46476;-40
2024/01/11 15:24:18;;;;;;;9.93;8.27;;;21.70;19.50;;;;;;4997914;28;45550;-38
2024/01/11 15:26:44;;;;;;;11.18;8.70;;;21.70;19.40;;;;;;4987650;28;45600;-39
2024/01/11 15:29:10;;;;;;;9.98;8.13;;;21.70;19.40;;;;;;4996799;28;45367;-39
2024/01/11 15:31:38;;;;;;;9.57;8.52;;;21.60;19.40;;;;;;4992531;28;46081;-40
2024/01/11 15:34:04;;;;;;;9.95;8.68;;;21.70;19.50;;;;;;5009029;28;45247;-39
2024/01/11 15:36:29;;;;;;;9.90;8.50;;;21.60;19.50;;;;;;4994310;28;45453;-39
2024/01/11 15:38:55;;;;;;;10.17;8.37;;;21.60;19.40;;;;;;5001139;28;46129;-39
2024/01/11 15:41:20;;;;;;;10.77;8.37;;;21.60;19.50;;;;;;4996128;28;45271;-38
2024/01/11 15:43:48;;;;;;;10.95;8.35;;;21.60;19.50;;;;;;5013618;28;45642;-39
2024/01/11 15:46:14;;;;;;;10.95;8.48;;;21.70;19.50;;;;;;4986329;28;45339;-41
2024/01/11 15:48:39;;;;;;;10.60;8.80;;;21.60;19.50;;;;;;4993955;28;46578;-41
2024/01/11 15:51:05;;;;;;;11.23;8.67;;;21.60;19.50;;;;;;4998751;28;45844;-41
2024/01/11 15:53:30;;;;;;;9.80;8.73;;;21.60;19.50;;;;;;5001733;28;45286;-45
2024/01/11 15:55:57;;;;;;;10.52;8.20;;;21.60;19.50;;;;;;4993878;28;45358;-43
2024/01/11 15:58:23;;;;;;;10.35;8.45;;;21.60;19.60;;;;;;5001088;28;47337;-43
2024/01/11 16:00:48;;;;;;;11.10;8.38;;;21.60;19.60;;;;;;4982613;28;47580;-40
2024/01/11 16:03:14;;;;;;;11.38;8.98;;;21.60;19.60;;;;;;4999031;28;45996;-39
2024/01/11 16:05:39;;;;;;;11.88;8.73;;;21.60;19.60;;;;;;4995192;28;45753;-44
2024/01/11 16:08:05;;;;;;;10.60;8.77;;;21.60;19.60;;;;;;5004922;28;45137;-43
2024/01/11 16:10:31;;;;;;;10.05;8.90;;;21.60;19.60;;;;;;4993437;28;45483;-44
2024/01/11 16:12:57;;;;;;;10.40;9.07;;;21.60;19.60;;;;;;4999633;28;45504;-44
2024/01/11 16:15:22;;;;;;;12.95;9.82;;;21.60;19.60;;;;;;4996111;28;45375;-41
2024/01/11 16:17:48;;;;;;;13.75;9.80;;;21.60;19.60;;;;;;4997280;28;46375;-46
2024/01/11 16:20:14;;;;;;;13.07;10.48;;;21.60;19.60;;;;;;4994529;28;45326;-39
2024/01/11 16:22:39;;;;;;;12.15;10.13;;;21.60;19.60;;;;;;5003636;28;45629;-39
2024/01/11 16:25:05;;;;;;;14.10;10.65;;;21.50;19.60;;;;;;4994067;28;45442;-44
2024/01/11 16:27:31;;;;;;;13.43;10.50;;;21.60;19.60;;;;;;4999830;28;44755;-40
2024/01/11 16:29:56;;;;;;;12.90;10.37;;;21.50;19.70;;;;;;5000697;28;46137;-39
2024/01/11 16:32:22;;;;;;;13.17;10.63;;;21.50;19.60;;;;;;4985367;28;46483;-39
2024/01/11 16:34:47;;;;;;;12.97;11.07;;;21.60;19.70;;;;;;5001822;28;45338;-41
2024/01/11 16:37:15;;;;;;;13.60;11.60;;;21.50;19.60;;;;;;4997668;28;45444;-40
2024/01/11 16:39:41;;;;;;;14.20;11.67;;;21.50;19.60;;;;;;5001251;28;46331;-39
2024/01/11 16:42:08;;;;;;;14.10;11.70;;;21.50;19.60;;;;;;4992063;28;45228;-39
2024/01/11 16:44:33;;;;;;;14.07;11.80;;;21.40;19.60;;;;;;5005967;28;45075;-45
2024/01/11 16:46:59;;;;;;;15.55;11.98;;;21.50;19.60;;;;;;4988064;28;45541;-40
2024/01/11 16:49:25;;;;;;;14.10;11.80;;;21.50;19.60;;;;;;5000655;28;45496;-39
2024/01/11 16:51:50;;;;;;;15.60;11.97;;;21.40;19.60;;;;;;4996254;28;45255;-39
2024/01/11 16:54:16;;;;;;;15.00;12.47;;;21.40;19.60;;;;;;5005317;28;45580;-40
2024/01/11 16:56:42;;;;;;;16.83;13.02;;;21.40;19.60;;;;;;4997104;28;45784;-41
2024/01/11 16:59:08;;;;;;;14.82;12.20;;;21.40;19.60;;;;;;5003705;28;46075;-40
2024/01/11 17:01:34;;;;;;;14.88;11.85;;;21.40;19.60;;;;;;4966045;28;45574;-39
2024/01/11 17:04:00;;;;;;;14.48;11.90;;;21.40;19.60;;;;;;5006849;28;45425;-38
2024/01/11 17:06:26;;;;;;;15.43;12.77;;;21.40;19.60;;;;;;4996993;28;45392;-44
2024/01/11 17:08:52;;;;;;;15.03;12.40;;;21.40;19.60;;;;;;5000877;28;46881;-41
2024/01/11 17:11:17;;;;;;;16.55;12.02;;;21.40;19.60;;;;;;4989526;28;46712;-40
2024/01/11 17:13:43;;;;;;;14.98;12.55;;;21.40;19.70;;;;;;5004967;28;46730;-39
2024/01/11 17:16:15;;;;;;;13.73;12.27;;;21.40;19.70;;;;;;4984390;28;45671;-40
2024/01/11 17:18:40;;;;;;;14.90;12.17;;;21.40;19.70;;;;;;5009655;28;46408;-41
2024/01/11 17:21:07;;;;;;;15.60;12.17;;;21.40;19.70;;;;;;4988679;28;45331;-42
2024/01/11 17:23:32;;;;;;;15.82;12.40;;;21.30;19.70;;;;;;4997712;28;45244;-42
2024/01/11 17:25:59;;;;;;;13.90;11.73;;;21.30;19.70;;;;;;4986961;28;45266;-39
2024/01/11 17:28:25;;;;;;;15.70;12.77;;;21.30;19.70;;;;;;4993627;28;45887;-40
2024/01/11 17:30:51;;;;;;;15.05;12.27;;;21.30;19.70;;;;;;4975804;28;45852;-41
2024/01/11 17:33:17;;;;;;;13.23;11.52;;;21.30;19.70;;;;;;4995401;28;45076;-40
2024/01/11 17:35:42;;;;;;;14.00;11.70;;;21.30;19.70;;;;;;4993095;28;45377;-39
2024/01/11 17:38:08;;;;;;;15.60;12.40;;;21.30;19.70;;;;;;4993951;28;45847;-40
2024/01/11 17:40:35;;;;;;;14.40;11.90;;;21.30;19.70;;;;;;4995603;28;45119;-39
2024/01/11 17:43:02;;;;;;;15.55;12.18;;;21.20;19.70;;;;;;4995603;28;45782;-41
2024/01/11 17:45:28;;;;;;;15.00;12.15;;;21.20;19.70;;;;;;4991215;28;45015;-39
2024/01/11 17:47:53;;;;;;;15.30;11.75;;;21.30;19.80;;;;;;4993306;28;45550;-39
2024/01/11 17:50:19;;;;;;;14.85;12.15;;;21.20;19.70;;;;;;4992802;28;45581;-39
2024/01/11 17:52:45;;;;;;;14.00;11.77;;;21.20;19.70;;;;;;4992580;28;45816;-42
2024/01/11 17:55:10;;;;;;;15.20;11.90;;;21.20;19.80;;;;;;4989891;28;45398;-41
2024/01/11 17:57:36;;;;;;;14.90;11.93;;;21.20;19.70;;;;;;5006366;28;47037;-41
2024/01/11 18:00:04;;;;;;;15.10;12.47;;;21.20;19.70;;;;;;4999925;28;46063;-46